Time,TemperatureF,DewpointF,PressureIn,WindDirection,WindDirectionDegrees,WindSpeedMPH,WindSpeedGustMPH,Humidity,HourlyPrecipIn,Conditions,Clouds,dailyrainin,SoftwareType,DateUTC
2013-09-06 00:00:00,41.7,40.4,29.70,NE,42,0.0,0.0,95,0.00,,,0.05,Wunderground v.1.15,2013-09-06 08:00:00,
2013-09-06 00:05:00,41.3,40.0,29.70,NE,42,0.0,0.0,95,0.00,,,0.00,Wunderground v.1.15,2013-09-06 08:05:00,
2013-09-06 00:10:00,41.0,41.0,29.70,NE,42,0.0,0.0,100,0.00,,,0.00,Wunderground v.1.15,2013-09-06 08:10:00,
2013-09-06 00:15:00,40.7,39.4,29.70,NE,42,0.0,0.0,95,0.00,,,0.00,Wunderground v.1.15,2013-09-06 08:15:00,
2013-09-06 00:20:00,40.4,39.1,29.70,NE,42,0.0,0.0,95,0.00,,,0.00,Wunderground v.1.15,2013-09-06 08:20:00,
2013-09-06 00:25:00,40.0,38.7,29.70,NE,42,0.0,0.0,95,0.00,,,0.00,Wunderground v.1.15,2013-09-06 08:25:00,
2013-09-06 00:30:00,39.7,38.4,29.70,NE,42,0.0,0.0,95,0.00,,,0.00,Wunderground v.1.15,2013-09-06 08:30:00,
2013-09-06 00:35:00,39.5,38.5,29.71,NE,42,0.0,0.0,96,0.00,,,0.00,Wunderground v.1.15,2013-09-06 08:35:00,
2013-09-06 00:40:00,39.3,38.3,29.71,NE,42,0.0,0.0,96,0.00,,,0.00,Wunderground v.1.15,2013-09-06 08:40:00,
2013-09-06 00:45:00,39.1,38.1,29.71,NE,42,0.0,0.0,96,0.00,,,0.00,Wunderground v.1.15,2013-09-06 08:45:00,
2013-09-06 00:50:00,39.0,38.0,29.71,NE,42,0.0,0.0,96,0.00,,,0.00,Wunderground v.1.15,2013-09-06 08:50:00,
2013-09-06 00:55:00,38.9,37.9,29.71,NE,42,0.0,0.0,96,0.00,,,0.00,Wunderground v.1.15,2013-09-06 08:55:00,
2013-09-06 01:00:00,38.7,37.7,29.71,NE,42,0.0,0.0,96,0.00,,,0.00,Wunderground v.1.15,2013-09-06 09:00:00,
2013-09-06 01:10:00,38.0,36.7,29.71,NE,42,0.0,0.0,95,0.00,,,0.00,Wunderground v.1.15,2013-09-06 09:10:00,
2013-09-06 01:15:00,37.7,36.7,29.72,NE,42,0.0,0.0,96,0.00,,,0.00,Wunderground v.1.15,2013-09-06 09:15:00,
2013-09-06 01:20:00,37.4,36.4,29.72,NE,42,0.0,0.0,96,0.00,,,0.00,Wunderground v.1.15,2013-09-06 09:20:00,
2013-09-06 01:25:00,37.1,36.1,29.72,NE,42,0.0,0.0,96,0.00,,,0.00,Wunderground v.1.15,2013-09-06 09:25:00,
2013-09-06 01:30:00,36.7,35.7,29.72,NE,42,0.0,0.0,96,0.00,,,0.00,Wunderground v.1.15,2013-09-06 09:30:00,
2013-09-06 01:35:00,36.4,35.4,29.72,NE,42,0.0,0.0,96,0.00,,,0.00,Wunderground v.1.15,2013-09-06 09:35:00,
2013-09-06 01:40:00,36.3,35.3,29.72,NE,42,0.0,0.0,96,0.00,,,0.00,Wunderground v.1.15,2013-09-06 09:40:00,
2013-09-06 01:45:00,36.2,35.2,29.72,NE,42,0.0,0.0,96,0.00,,,0.00,Wunderground v.1.15,2013-09-06 09:45:00,
2013-09-06 01:50:00,36.1,35.3,29.73,NE,42,0.0,0.0,97,0.00,,,0.00,Wunderground v.1.15,2013-09-06 09:50:00,
2013-09-06 01:55:00,36.0,35.2,29.72,NE,42,0.0,0.0,97,0.00,,,0.00,Wunderground v.1.15,2013-09-06 09:55:00,
2013-09-06 02:00:00,35.9,35.1,29.73,NE,42,0.0,0.0,97,0.00,,,0.00,Wunderground v.1.15,2013-09-06 10:00:00,
2013-09-06 02:05:00,35.7,34.9,29.73,NE,42,0.0,0.0,97,0.00,,,0.00,Wunderground v.1.15,2013-09-06 10:05:00,
2013-09-06 02:10:00,35.6,34.8,29.73,NE,42,0.0,0.0,97,0.00,,,0.00,Wunderground v.1.15,2013-09-06 10:10:00,
2013-09-06 02:15:00,35.5,34.7,29.73,NE,42,0.0,0.0,97,0.00,,,0.00,Wunderground v.1.15,2013-09-06 10:15:00,
2013-09-06 02:20:00,35.5,34.7,29.73,NE,42,0.0,0.0,97,0.00,,,0.00,Wunderground v.1.15,2013-09-06 10:20:00,
2013-09-06 02:25:00,35.6,34.8,29.73,NE,42,0.0,0.0,97,0.00,,,0.00,Wunderground v.1.15,2013-09-06 10:25:00,
2013-09-06 02:30:00,35.8,35.3,29.73,NE,42,0.0,0.0,98,0.00,,,0.00,Wunderground v.1.15,2013-09-06 10:30:00,
2013-09-06 02:35:00,36.1,35.6,29.73,NE,42,0.0,0.0,98,0.00,,,0.00,Wunderground v.1.15,2013-09-06 10:35:00,
2013-09-06 02:40:00,36.4,35.9,29.73,NE,42,0.0,0.0,98,0.00,,,0.00,Wunderground v.1.15,2013-09-06 10:40:00,
2013-09-06 02:45:00,36.8,36.3,29.73,NE,42,0.0,0.0,98,0.00,,,0.00,Wunderground v.1.15,2013-09-06 10:45:00,
2013-09-06 02:50:00,36.9,36.4,29.73,NE,42,0.0,0.0,98,0.00,,,0.00,Wunderground v.1.15,2013-09-06 10:50:00,
2013-09-06 02:55:00,37.0,36.5,29.73,NE,42,0.0,0.0,98,0.00,,,0.00,Wunderground v.1.15,2013-09-06 10:55:00,
2013-09-06 03:10:00,36.9,36.4,29.73,NE,42,0.0,0.0,98,0.00,,,0.00,Wunderground v.1.15,2013-09-06 11:10:00,
2013-09-06 03:15:00,36.9,36.4,29.73,NE,42,0.0,0.0,98,0.00,,,0.00,Wunderground v.1.15,2013-09-06 11:15:00,
2013-09-06 03:20:00,37.0,36.5,29.73,NE,42,0.0,0.0,98,0.00,,,0.00,Wunderground v.1.15,2013-09-06 11:20:00,
2013-09-06 03:25:00,37.2,36.7,29.73,NE,42,0.0,0.0,98,0.00,,,0.00,Wunderground v.1.15,2013-09-06 11:25:00,
2013-09-06 03:30:00,37.5,37.0,29.73,NE,42,0.0,0.0,98,0.00,,,0.00,Wunderground v.1.15,2013-09-06 11:30:00,
2013-09-06 03:35:00,37.7,37.2,29.73,NE,42,0.0,0.0,98,0.00,,,0.00,Wunderground v.1.15,2013-09-06 11:35:00,
2013-09-06 03:40:00,37.9,37.4,29.73,NE,42,0.0,0.0,98,0.00,,,0.00,Wunderground v.1.15,2013-09-06 11:40:00,
2013-09-06 03:45:00,38.2,37.9,29.73,NE,42,0.0,0.0,99,0.00,,,0.00,Wunderground v.1.15,2013-09-06 11:45:00,
2013-09-06 03:50:00,38.5,38.2,29.74,NE,42,0.0,0.0,99,0.00,,,0.00,Wunderground v.1.15,2013-09-06 11:50:00,
2013-09-06 04:00:00,39.1,38.8,29.73,NE,42,0.0,0.0,99,0.00,,,0.00,Wunderground v.1.15,2013-09-06 12:00:00,
2013-09-06 04:05:00,39.4,39.1,29.73,NE,42,0.0,0.0,99,0.00,,,0.00,Wunderground v.1.15,2013-09-06 12:05:00,
2013-09-06 04:10:00,39.5,39.2,29.73,NE,42,0.0,0.0,99,0.00,,,0.00,Wunderground v.1.15,2013-09-06 12:10:00,
2013-09-06 04:15:00,39.7,39.4,29.73,NE,42,0.0,0.0,99,0.00,,,0.00,Wunderground v.1.15,2013-09-06 12:15:00,
2013-09-06 04:20:00,40.1,39.8,29.73,NE,42,0.0,0.0,99,0.00,,,0.00,Wunderground v.1.15,2013-09-06 12:20:00,
2013-09-06 04:25:00,40.2,39.9,29.73,NE,42,0.0,0.0,99,0.00,,,0.00,Wunderground v.1.15,2013-09-06 12:25:00,
2013-09-06 04:35:00,40.7,40.4,29.73,NE,42,0.0,0.0,99,0.00,,,0.00,Wunderground v.1.15,2013-09-06 12:35:00,
2013-09-06 04:40:00,41.0,40.7,29.73,NE,42,0.0,0.0,99,0.00,,,0.00,Wunderground v.1.15,2013-09-06 12:40:00,
2013-09-06 04:45:00,41.3,41.0,29.74,NE,42,0.0,0.0,99,0.00,,,0.00,Wunderground v.1.15,2013-09-06 12:45:00,
2013-09-06 04:50:00,41.6,41.3,29.74,NE,42,0.0,0.0,99,0.00,,,0.00,Wunderground v.1.15,2013-09-06 12:50:00,
2013-09-06 04:55:00,41.5,41.2,29.74,NE,42,0.0,0.0,99,0.00,,,0.00,Wunderground v.1.15,2013-09-06 12:55:00,
2013-09-06 05:00:00,41.3,41.0,29.74,NE,42,0.0,0.0,99,0.00,,,0.00,Wunderground v.1.15,2013-09-06 13:00:00,
2013-09-06 05:05:00,41.1,40.8,29.74,NE,42,0.0,0.0,99,0.00,,,0.00,Wunderground v.1.15,2013-09-06 13:05:00,
2013-09-06 05:10:00,40.9,40.6,29.74,NE,42,0.0,0.0,99,0.00,,,0.00,Wunderground v.1.15,2013-09-06 13:10:00,
2013-09-06 05:15:00,40.7,40.2,29.75,NE,42,0.0,0.0,98,0.00,,,0.00,Wunderground v.1.15,2013-09-06 13:15:00,
2013-09-06 05:20:00,40.6,40.1,29.74,NE,42,0.0,0.0,98,0.00,,,0.00,Wunderground v.1.15,2013-09-06 13:20:00,
2013-09-06 05:25:00,40.5,40.0,29.74,NE,42,0.0,0.0,98,0.00,,,0.00,Wunderground v.1.15,2013-09-06 13:25:00,
2013-09-06 05:30:00,40.5,40.2,29.74,NE,42,0.0,0.0,99,0.00,,,0.00,Wunderground v.1.15,2013-09-06 13:30:00,
2013-09-06 05:35:00,40.5,40.2,29.75,NE,42,0.0,0.0,99,0.00,,,0.00,Wunderground v.1.15,2013-09-06 13:35:00,
2013-09-06 05:40:00,40.5,40.2,29.75,NE,42,0.0,0.0,99,0.00,,,0.00,Wunderground v.1.15,2013-09-06 13:40:00,
2013-09-06 05:45:00,40.5,40.2,29.75,NE,42,0.0,0.0,99,0.00,,,0.00,Wunderground v.1.15,2013-09-06 13:45:00,
2013-09-06 05:50:00,40.6,40.3,29.75,NE,42,0.0,0.0,99,0.00,,,0.00,Wunderground v.1.15,2013-09-06 13:50:00,
2013-09-06 06:00:00,40.6,40.3,29.75,NE,42,0.0,0.0,99,0.00,,,0.00,Wunderground v.1.15,2013-09-06 14:00:00,
2013-09-06 06:05:00,40.6,40.3,29.75,NE,42,0.0,0.0,99,0.00,,,0.00,Wunderground v.1.15,2013-09-06 14:05:00,
2013-09-06 06:10:00,40.6,40.3,29.75,NE,42,0.0,0.0,99,0.00,,,0.00,Wunderground v.1.15,2013-09-06 14:10:00,
2013-09-06 06:15:00,40.7,40.4,29.75,NE,42,0.0,0.0,99,0.00,,,0.00,Wunderground v.1.15,2013-09-06 14:15:00,
2013-09-06 06:20:00,40.6,40.3,29.75,NE,42,0.0,0.0,99,0.00,,,0.00,Wunderground v.1.15,2013-09-06 14:20:00,
2013-09-06 06:25:00,40.7,40.4,29.75,NE,42,0.0,0.0,99,0.00,,,0.00,Wunderground v.1.15,2013-09-06 14:25:00,
2013-09-06 06:30:00,40.7,40.4,29.75,NE,42,0.0,0.0,99,0.00,,,0.00,Wunderground v.1.15,2013-09-06 14:30:00,
2013-09-06 06:35:00,40.7,40.4,29.75,NE,42,0.0,0.0,99,0.00,,,0.00,Wunderground v.1.15,2013-09-06 14:35:00,
2013-09-06 06:40:00,40.7,40.4,29.75,NE,42,0.0,0.0,99,0.00,,,0.00,Wunderground v.1.15,2013-09-06 14:40:00,
2013-09-06 06:45:00,40.7,40.4,29.75,NE,42,0.0,0.0,99,0.00,,,0.00,Wunderground v.1.15,2013-09-06 14:45:00,
2013-09-06 06:50:00,40.8,40.5,29.75,NE,42,0.0,0.0,99,0.00,,,0.00,Wunderground v.1.15,2013-09-06 14:50:00,
2013-09-06 06:55:00,40.9,40.6,29.75,NE,42,0.0,0.0,99,0.00,,,0.00,Wunderground v.1.15,2013-09-06 14:55:00,
2013-09-06 07:00:00,41.0,40.7,29.75,NE,42,0.0,0.0,99,0.00,,,0.00,Wunderground v.1.15,2013-09-06 15:00:00,
2013-09-06 07:05:00,41.0,41.0,29.75,NE,42,0.0,0.0,100,0.00,,,0.00,Wunderground v.1.15,2013-09-06 15:05:00,
2013-09-06 07:10:00,41.1,40.8,29.75,NE,42,0.0,0.0,99,0.00,,,0.00,Wunderground v.1.15,2013-09-06 15:10:00,
2013-09-06 07:15:00,41.1,40.8,29.75,NE,42,0.0,0.0,99,0.00,,,0.00,Wunderground v.1.15,2013-09-06 15:15:00,
2013-09-06 07:20:00,41.2,40.9,29.75,NE,42,0.0,0.0,99,0.00,,,0.00,Wunderground v.1.15,2013-09-06 15:20:00,
2013-09-06 07:25:00,41.3,41.0,29.75,NE,42,0.0,0.0,99,0.00,,,0.00,Wunderground v.1.15,2013-09-06 15:25:00,
2013-09-06 07:30:00,41.3,41.0,29.75,NE,42,0.0,0.0,99,0.00,,,0.00,Wunderground v.1.15,2013-09-06 15:30:00,
2013-09-06 07:35:00,41.3,41.0,29.75,NE,42,0.0,0.0,99,0.00,,,0.00,Wunderground v.1.15,2013-09-06 15:35:00,
2013-09-06 07:40:00,41.3,41.0,29.75,NE,42,0.0,0.0,99,0.00,,,0.00,Wunderground v.1.15,2013-09-06 15:40:00,
2013-09-06 07:45:00,41.4,41.1,29.75,NE,42,0.0,0.0,99,0.00,,,0.00,Wunderground v.1.15,2013-09-06 15:45:00,
2013-09-06 07:50:00,41.4,41.1,29.75,NE,42,0.0,0.0,99,0.00,,,0.00,Wunderground v.1.15,2013-09-06 15:50:00,
2013-09-06 07:55:00,41.4,41.1,29.75,NE,42,0.0,0.0,99,0.00,,,0.00,Wunderground v.1.15,2013-09-06 15:55:00,
2013-09-06 08:00:00,41.4,41.1,29.75,NE,42,0.0,0.0,99,0.00,,,0.00,Wunderground v.1.15,2013-09-06 16:00:00,
2013-09-06 08:05:00,41.4,41.1,29.75,NE,42,0.0,0.0,99,0.00,,,0.00,Wunderground v.1.15,2013-09-06 16:05:00,
2013-09-06 08:10:00,41.3,41.0,29.75,NE,42,0.0,0.0,99,0.00,,,0.00,Wunderground v.1.15,2013-09-06 16:10:00,
2013-09-06 08:15:00,41.2,40.9,29.76,NE,42,0.0,0.0,99,0.00,,,0.00,Wunderground v.1.15,2013-09-06 16:15:00,
2013-09-06 08:20:00,41.3,41.0,29.75,NE,42,0.0,0.0,99,0.00,,,0.00,Wunderground v.1.15,2013-09-06 16:20:00,
2013-09-06 08:25:00,41.4,41.1,29.76,NE,42,0.0,0.0,99,0.00,,,0.00,Wunderground v.1.15,2013-09-06 16:25:00,
2013-09-06 08:30:00,41.5,41.2,29.76,NE,42,0.0,0.0,99,0.00,,,0.00,Wunderground v.1.15,2013-09-06 16:30:00,
2013-09-06 08:35:00,41.5,41.2,29.75,NE,42,0.0,0.0,99,0.00,,,0.00,Wunderground v.1.15,2013-09-06 16:35:00,
2013-09-06 08:40:00,41.5,41.2,29.75,NE,42,0.0,0.0,99,0.00,,,0.00,Wunderground v.1.15,2013-09-06 16:40:00,
2013-09-06 08:50:00,41.5,41.2,29.76,NE,42,0.0,0.0,99,0.00,,,0.00,Wunderground v.1.15,2013-09-06 16:50:00,
2013-09-06 08:55:00,41.6,41.3,29.76,NE,42,0.0,0.0,99,0.00,,,0.00,Wunderground v.1.15,2013-09-06 16:55:00,
2013-09-06 09:00:00,41.9,41.6,29.76,NE,42,0.0,0.0,99,0.00,,,0.00,Wunderground v.1.15,2013-09-06 17:00:00,
2013-09-06 09:05:00,42.2,41.9,29.76,NE,42,0.0,0.0,99,0.00,,,0.00,Wunderground v.1.15,2013-09-06 17:05:00,
2013-09-06 09:10:00,42.5,42.2,29.76,NE,42,0.0,0.0,99,0.00,,,0.00,Wunderground v.1.15,2013-09-06 17:10:00,
2013-09-06 09:15:00,42.9,42.6,29.76,NE,42,0.0,0.0,99,0.00,,,0.00,Wunderground v.1.15,2013-09-06 17:15:00,
2013-09-06 09:20:00,43.1,43.1,29.76,NE,42,0.0,0.0,100,0.00,,,0.00,Wunderground v.1.15,2013-09-06 17:20:00,
2013-09-06 09:30:00,43.8,43.8,29.76,NE,42,0.0,0.0,100,0.00,,,0.00,Wunderground v.1.15,2013-09-06 17:30:00,
2013-09-06 09:35:00,44.0,44.0,29.76,NE,42,0.0,0.0,100,0.00,,,0.00,Wunderground v.1.15,2013-09-06 17:35:00,
2013-09-06 09:45:00,44.7,44.7,29.76,NE,42,0.0,0.0,100,0.00,,,0.00,Wunderground v.1.15,2013-09-06 17:45:00,
2013-09-06 09:50:00,44.9,44.9,29.76,NE,42,0.0,0.0,100,0.00,,,0.00,Wunderground v.1.15,2013-09-06 17:50:00,
2013-09-06 09:55:00,44.9,44.9,29.76,NE,42,0.0,0.0,100,0.00,,,0.00,Wunderground v.1.15,2013-09-06 17:55:00,
2013-09-06 10:00:00,44.9,44.9,29.76,NE,42,0.0,0.0,100,0.00,,,0.00,Wunderground v.1.15,2013-09-06 18:00:00,
2013-09-06 10:05:00,45.0,45.0,29.76,NE,42,0.0,0.0,100,0.00,,,0.00,Wunderground v.1.15,2013-09-06 18:05:00,
2013-09-06 10:15:00,45.2,45.2,29.76,NE,42,0.0,0.0,100,0.00,,,0.00,Wunderground v.1.15,2013-09-06 18:15:00,
2013-09-06 10:20:00,45.3,45.3,29.76,NE,42,0.0,0.0,100,0.00,,,0.00,Wunderground v.1.15,2013-09-06 18:20:00,
2013-09-06 10:25:00,45.4,45.4,29.76,NE,42,0.0,0.0,100,0.00,,,0.00,Wunderground v.1.15,2013-09-06 18:25:00,
2013-09-06 10:30:00,45.5,45.5,29.76,NE,42,0.0,0.0,100,0.00,,,0.00,Wunderground v.1.15,2013-09-06 18:30:00,
2013-09-06 10:35:00,45.7,45.7,29.76,NE,42,0.0,0.0,100,0.00,,,0.00,Wunderground v.1.15,2013-09-06 18:35:00,
2013-09-06 10:40:00,46.0,46.0,29.76,NE,42,0.0,0.0,100,0.00,,,0.00,Wunderground v.1.15,2013-09-06 18:40:00,
2013-09-06 10:45:00,46.2,46.2,29.76,NE,42,0.0,0.0,100,0.00,,,0.00,Wunderground v.1.15,2013-09-06 18:45:00,
2013-09-06 10:50:00,46.6,46.6,29.76,NE,42,0.0,0.0,100,0.00,,,0.00,Wunderground v.1.15,2013-09-06 18:50:00,
2013-09-06 11:00:00,46.9,46.9,29.76,NE,42,0.0,0.0,100,0.00,,,0.00,Wunderground v.1.15,2013-09-06 19:00:00,
2013-09-06 11:05:00,47.0,47.0,29.76,NE,42,0.0,0.0,100,0.00,,,0.00,Wunderground v.1.15,2013-09-06 19:05:00,
2013-09-06 11:10:00,47.2,47.2,29.76,NE,42,0.0,0.0,100,0.00,,,0.00,Wunderground v.1.15,2013-09-06 19:10:00,
2013-09-06 11:15:00,47.3,47.3,29.76,NE,42,0.0,0.0,100,0.00,,,0.00,Wunderground v.1.15,2013-09-06 19:15:00,
2013-09-06 11:20:00,47.6,47.6,29.76,NE,42,0.0,0.0,100,0.00,,,0.00,Wunderground v.1.15,2013-09-06 19:20:00,
2013-09-06 11:25:00,47.9,47.9,29.76,NE,42,0.0,0.0,100,0.00,,,0.00,Wunderground v.1.15,2013-09-06 19:25:00,
2013-09-06 11:30:00,48.0,48.0,29.76,NE,42,0.0,0.0,100,0.00,,,0.00,Wunderground v.1.15,2013-09-06 19:30:00,
2013-09-06 11:35:00,48.1,47.8,29.76,NE,42,0.0,0.0,99,0.00,,,0.00,Wunderground v.1.15,2013-09-06 19:35:00,
2013-09-06 11:40:00,48.0,47.7,29.76,NE,42,0.0,0.0,99,0.00,,,0.00,Wunderground v.1.15,2013-09-06 19:40:00,
2013-09-06 11:45:00,48.1,47.8,29.76,NE,42,0.0,0.0,99,0.00,,,0.00,Wunderground v.1.15,2013-09-06 19:45:00,
2013-09-06 11:55:00,48.0,47.7,29.75,NE,42,0.0,0.0,99,0.00,,,0.00,Wunderground v.1.15,2013-09-06 19:55:00,
2013-09-06 12:00:00,48.2,47.9,29.75,NE,42,0.0,0.0,99,0.00,,,0.00,Wunderground v.1.15,2013-09-06 20:00:00,
2013-09-06 12:05:00,48.3,48.0,29.75,NE,42,0.0,0.0,99,0.00,,,0.00,Wunderground v.1.15,2013-09-06 20:05:00,
2013-09-06 12:10:00,48.4,47.9,29.75,NE,42,0.0,0.0,98,0.00,,,0.00,Wunderground v.1.15,2013-09-06 20:10:00,
2013-09-06 12:15:00,48.6,48.1,29.75,NE,42,0.0,0.0,98,0.00,,,0.00,Wunderground v.1.15,2013-09-06 20:15:00,
2013-09-06 12:20:00,48.7,48.2,29.75,NE,42,0.0,0.0,98,0.00,,,0.00,Wunderground v.1.15,2013-09-06 20:20:00,
2013-09-06 12:25:00,48.8,48.0,29.75,NE,42,0.0,0.0,97,0.00,,,0.00,Wunderground v.1.15,2013-09-06 20:25:00,
2013-09-06 12:30:00,48.8,48.0,29.75,NE,42,0.0,0.0,97,0.00,,,0.00,Wunderground v.1.15,2013-09-06 20:30:00,
2013-09-06 12:40:00,49.2,48.1,29.75,NE,42,0.0,0.0,96,0.00,,,0.00,Wunderground v.1.15,2013-09-06 20:40:00,
2013-09-06 12:45:00,49.5,48.4,29.74,NE,42,0.0,0.0,96,0.00,,,0.00,Wunderground v.1.15,2013-09-06 20:45:00,
2013-09-06 12:50:00,49.8,48.7,29.74,NE,42,0.0,0.0,96,0.00,,,0.00,Wunderground v.1.15,2013-09-06 20:50:00,
2013-09-06 12:55:00,49.9,48.2,29.74,NE,42,0.0,0.0,94,0.00,,,0.00,Wunderground v.1.15,2013-09-06 20:55:00,
2013-09-06 13:00:00,50.0,48.3,29.74,NE,42,0.0,0.0,94,0.00,,,0.00,Wunderground v.1.15,2013-09-06 21:00:00,
2013-09-06 13:05:00,50.3,48.9,29.74,NE,42,0.0,0.0,95,0.00,,,0.00,Wunderground v.1.15,2013-09-06 21:05:00,
2013-09-06 13:10:00,50.5,48.8,29.74,NE,42,0.0,0.0,94,0.00,,,0.00,Wunderground v.1.15,2013-09-06 21:10:00,
2013-09-06 13:15:00,50.8,49.4,29.74,NE,42,0.0,0.0,95,0.00,,,0.00,Wunderground v.1.15,2013-09-06 21:15:00,
2013-09-06 13:20:00,50.9,49.2,29.74,NE,42,0.0,0.0,94,0.00,,,0.00,Wunderground v.1.15,2013-09-06 21:20:00,
2013-09-06 13:30:00,50.9,48.7,29.73,NE,42,0.0,0.0,92,0.00,,,0.00,Wunderground v.1.15,2013-09-06 21:30:00,
2013-09-06 13:35:00,50.7,48.5,29.73,NE,42,0.0,0.0,92,0.00,,,0.00,Wunderground v.1.15,2013-09-06 21:35:00,
2013-09-06 13:40:00,50.6,48.1,29.73,NE,42,0.0,0.0,91,0.00,,,0.00,Wunderground v.1.15,2013-09-06 21:40:00,
2013-09-06 13:45:00,50.7,48.5,29.73,NE,42,0.0,0.0,92,0.00,,,0.00,Wunderground v.1.15,2013-09-06 21:45:00,
2013-09-06 13:50:00,50.6,48.4,29.73,NE,42,0.0,0.0,92,0.00,,,0.00,Wunderground v.1.15,2013-09-06 21:50:00,
2013-09-06 13:55:00,50.7,48.5,29.73,NE,42,0.0,0.0,92,0.00,,,0.00,Wunderground v.1.15,2013-09-06 21:55:00,
2013-09-06 14:00:00,50.8,48.6,29.73,NE,42,0.0,0.0,92,0.00,,,0.00,Wunderground v.1.15,2013-09-06 22:00:00,
2013-09-06 14:05:00,50.9,48.7,29.73,NE,42,0.0,0.0,92,0.00,,,0.00,Wunderground v.1.15,2013-09-06 22:05:00,
2013-09-06 14:10:00,50.9,48.1,29.73,NE,42,0.0,0.0,90,0.00,,,0.00,Wunderground v.1.15,2013-09-06 22:10:00,
2013-09-06 14:15:00,50.9,48.4,29.73,NE,42,0.0,0.0,91,0.00,,,0.00,Wunderground v.1.15,2013-09-06 22:15:00,
2013-09-06 14:20:00,50.9,48.1,29.73,NE,42,0.0,0.0,90,0.00,,,0.00,Wunderground v.1.15,2013-09-06 22:20:00,
2013-09-06 14:25:00,51.0,47.9,29.73,NE,42,0.0,0.0,89,0.00,,,0.00,Wunderground v.1.15,2013-09-06 22:25:00,
2013-09-06 14:30:00,51.1,47.7,29.72,NE,42,0.0,0.0,88,0.00,,,0.00,Wunderground v.1.15,2013-09-06 22:30:00,
2013-09-06 14:35:00,51.3,48.5,29.72,NE,42,0.0,0.0,90,0.00,,,0.00,Wunderground v.1.15,2013-09-06 22:35:00,
2013-09-06 14:40:00,51.6,49.1,29.72,NE,42,0.0,0.0,91,0.00,,,0.00,Wunderground v.1.15,2013-09-06 22:40:00,
2013-09-06 14:45:00,51.8,49.3,29.72,NE,42,0.0,0.0,91,0.00,,,0.00,Wunderground v.1.15,2013-09-06 22:45:00,
2013-09-06 14:50:00,52.2,49.4,29.72,NE,42,0.0,0.0,90,0.00,,,0.00,Wunderground v.1.15,2013-09-06 22:50:00,
2013-09-06 14:55:00,52.4,49.3,29.72,NE,42,0.0,0.0,89,0.00,,,0.00,Wunderground v.1.15,2013-09-06 22:55:00,
2013-09-06 15:00:00,52.7,49.2,29.72,NE,42,0.0,0.0,88,0.00,,,0.00,Wunderground v.1.15,2013-09-06 23:00:00,
2013-09-06 15:05:00,53.0,48.9,29.72,NE,42,0.0,0.0,86,0.00,,,0.00,Wunderground v.1.15,2013-09-06 23:05:00,
2013-09-06 15:10:00,53.7,49.9,29.72,NE,42,0.0,0.0,87,0.00,,,0.00,Wunderground v.1.15,2013-09-06 23:10:00,
2013-09-06 15:15:00,54.2,49.8,29.72,NE,42,0.0,0.0,85,0.00,,,0.00,Wunderground v.1.15,2013-09-06 23:15:00,
2013-09-06 15:30:00,54.3,48.3,29.71,NNW,338,1.0,4.0,80,0.00,,,0.00,Wunderground v.1.15,2013-09-06 23:30:00,
2013-09-06 15:35:00,54.0,48.0,29.71,NNW,336,3.0,4.0,80,0.00,,,0.00,Wunderground v.1.15,2013-09-06 23:35:00,
2013-09-06 15:40:00,53.9,48.2,29.71,NNW,346,2.0,2.0,81,0.00,,,0.00,Wunderground v.1.15,2013-09-06 23:40:00,
2013-09-06 15:45:00,54.1,49.4,29.71,NNW,346,1.0,2.0,84,0.00,,,0.00,Wunderground v.1.15,2013-09-06 23:45:00,
2013-09-06 15:50:00,54.1,49.4,29.71,West,281,0.0,1.0,84,0.00,,,0.00,Wunderground v.1.15,2013-09-06 23:50:00,
2013-09-06 15:55:00,53.9,47.9,29.71,NNW,344,1.0,2.0,80,0.00,,,0.00,Wunderground v.1.15,2013-09-06 23:55:00,
2013-09-06 16:00:00,53.7,47.3,29.70,NW,317,2.0,2.0,79,0.00,,,0.00,Wunderground v.1.15,2013-09-07 00:00:00,
2013-09-06 16:10:00,54.0,49.3,29.70,West,273,1.0,3.0,84,0.00,,,0.00,Wunderground v.1.15,2013-09-07 00:10:00,
2013-09-06 16:15:00,54.4,49.7,29.70,West,277,1.0,3.0,84,0.00,,,0.00,Wunderground v.1.15,2013-09-07 00:15:00,
2013-09-06 16:20:00,55.0,49.9,29.70,West,276,1.0,1.0,83,0.00,,,0.00,Wunderground v.1.15,2013-09-07 00:20:00,
2013-09-06 16:25:00,55.6,50.2,29.70,WNW,295,1.0,3.0,82,0.00,,,0.00,Wunderground v.1.15,2013-09-07 00:25:00,
2013-09-06 16:30:00,55.4,49.0,29.70,WNW,292,2.0,2.0,79,0.00,,,0.00,Wunderground v.1.15,2013-09-07 00:30:00,
2013-09-06 16:35:00,54.7,48.0,29.70,WNW,294,2.0,2.0,78,0.00,,,0.00,Wunderground v.1.15,2013-09-07 00:35:00,
2013-09-06 16:40:00,54.1,48.1,29.70,WNW,289,1.0,2.0,80,0.00,,,0.00,Wunderground v.1.15,2013-09-07 00:40:00,
2013-09-06 16:45:00,53.8,48.1,29.70,WNW,286,1.0,2.0,81,0.00,,,0.00,Wunderground v.1.15,2013-09-07 00:45:00,
2013-09-06 16:50:00,53.5,47.5,29.70,WNW,290,0.0,0.0,80,0.00,,,0.00,Wunderground v.1.15,2013-09-07 00:50:00,
2013-09-06 16:55:00,53.3,47.6,29.70,WNW,292,0.0,0.0,81,0.00,,,0.00,Wunderground v.1.15,2013-09-07 00:55:00,
2013-09-06 17:00:00,53.1,47.1,29.70,WNW,292,0.0,0.0,80,0.00,,,0.00,Wunderground v.1.15,2013-09-07 01:00:00,
2013-09-06 17:10:00,53.2,46.9,29.70,WNW,292,0.0,0.0,79,0.00,,,0.00,Wunderground v.1.15,2013-09-07 01:10:00,
2013-09-06 17:15:00,53.2,47.5,29.70,WNW,287,0.0,1.0,81,0.00,,,0.00,Wunderground v.1.15,2013-09-07 01:15:00,
2013-09-06 17:20:00,53.2,46.5,29.70,NNW,337,1.0,1.0,78,0.00,,,0.00,Wunderground v.1.15,2013-09-07 01:20:00,
2013-09-06 17:25:00,53.2,46.2,29.70,NNW,337,1.0,1.0,77,0.00,,,0.00,Wunderground v.1.15,2013-09-07 01:25:00,
2013-09-06 17:30:00,53.2,46.5,29.69,NNW,337,0.0,0.0,78,0.00,,,0.00,Wunderground v.1.15,2013-09-07 01:30:00,
2013-09-06 17:35:00,53.2,46.9,29.69,NNW,337,0.0,0.0,79,0.00,,,0.00,Wunderground v.1.15,2013-09-07 01:35:00,
2013-09-06 17:40:00,52.9,46.2,29.69,NNW,337,0.0,0.0,78,0.00,,,0.00,Wunderground v.1.15,2013-09-07 01:40:00,
2013-09-06 17:45:00,52.8,45.4,29.69,NNW,337,0.0,0.0,76,0.00,,,0.00,Wunderground v.1.15,2013-09-07 01:45:00,
2013-09-06 17:50:00,52.6,46.9,29.69,North,360,0.0,0.0,81,0.00,,,0.00,Wunderground v.1.15,2013-09-07 01:50:00,
2013-09-06 17:55:00,52.4,47.7,29.69,North,5,1.0,1.0,84,0.00,,,0.00,Wunderground v.1.15,2013-09-07 01:55:00,
2013-09-06 18:00:00,52.4,48.3,29.69,SSW,196,0.0,0.0,86,0.00,,,0.00,Wunderground v.1.15,2013-09-07 02:00:00,
2013-09-06 18:05:00,52.7,48.3,29.69,SSW,196,0.0,0.0,85,0.00,,,0.00,Wunderground v.1.15,2013-09-07 02:05:00,
2013-09-06 18:10:00,53.7,49.6,29.69,SSW,195,1.0,1.0,86,0.00,,,0.00,Wunderground v.1.15,2013-09-07 02:10:00,
2013-09-06 18:15:00,54.8,49.4,29.69,SSW,195,1.0,1.0,82,0.00,,,0.00,Wunderground v.1.15,2013-09-07 02:15:00,
2013-09-06 18:20:00,55.8,48.7,29.69,SSW,195,0.0,0.0,77,0.00,,,0.00,Wunderground v.1.15,2013-09-07 02:20:00,
2013-09-06 18:25:00,55.9,48.1,29.68,NNE,24,2.0,7.0,75,0.00,,,0.00,Wunderground v.1.15,2013-09-07 02:25:00,
2013-09-06 18:30:00,55.4,48.3,29.69,ESE,112,4.0,7.0,77,0.00,,,0.00,Wunderground v.1.15,2013-09-07 02:30:00,
2013-09-06 18:35:00,54.6,47.5,29.69,East,92,3.0,7.0,77,0.00,,,0.00,Wunderground v.1.15,2013-09-07 02:35:00,
2013-09-06 18:40:00,54.0,47.3,29.69,East,94,2.0,2.0,78,0.00,,,0.00,Wunderground v.1.15,2013-09-07 02:40:00,
2013-09-06 18:45:00,53.4,47.4,29.69,ESE,121,2.0,2.0,80,0.00,,,0.00,Wunderground v.1.15,2013-09-07 02:45:00,
2013-09-06 18:50:00,52.9,47.6,29.69,ESE,107,2.0,2.0,82,0.00,,,0.00,Wunderground v.1.15,2013-09-07 02:50:00,
2013-09-06 18:55:00,52.6,47.6,29.69,ESE,123,1.0,2.0,83,0.00,,,0.00,Wunderground v.1.15,2013-09-07 02:55:00,
2013-09-06 19:00:00,52.3,47.6,29.69,ESE,117,1.0,1.0,84,0.00,,,0.00,Wunderground v.1.15,2013-09-07 03:00:00,
2013-09-06 19:05:00,52.1,47.7,29.69,SE,131,1.0,1.0,85,0.00,,,0.00,Wunderground v.1.15,2013-09-07 03:05:00,
2013-09-06 19:10:00,52.0,47.9,29.69,SE,130,1.0,1.0,86,0.00,,,0.00,Wunderground v.1.15,2013-09-07 03:10:00,
2013-09-06 19:15:00,52.0,48.3,29.69,SE,134,1.0,1.0,87,0.00,,,0.00,Wunderground v.1.15,2013-09-07 03:15:00,
2013-09-06 19:20:00,52.0,48.3,29.69,SE,136,1.0,1.0,87,0.00,,,0.00,Wunderground v.1.15,2013-09-07 03:20:00,
2013-09-06 19:25:00,52.0,48.3,29.69,SE,134,1.0,1.0,87,0.00,,,0.00,Wunderground v.1.15,2013-09-07 03:25:00,
2013-09-06 19:30:00,51.9,48.2,29.69,SE,134,1.0,1.0,87,0.00,,,0.00,Wunderground v.1.15,2013-09-07 03:30:00,
2013-09-06 19:35:00,51.9,48.2,29.69,SE,134,0.0,1.0,87,0.00,,,0.00,Wunderground v.1.15,2013-09-07 03:35:00,
2013-09-06 19:40:00,52.0,47.9,29.69,SE,134,0.0,0.0,86,0.00,,,0.00,Wunderground v.1.15,2013-09-07 03:40:00,
2013-09-06 19:45:00,52.0,47.9,29.69,SE,134,0.0,0.0,86,0.00,,,0.00,Wunderground v.1.15,2013-09-07 03:45:00,
2013-09-06 19:50:00,52.1,48.0,29.69,SE,134,0.0,0.0,86,0.00,,,0.00,Wunderground v.1.15,2013-09-07 03:50:00,
2013-09-06 19:55:00,52.2,48.1,29.69,SE,134,0.0,0.0,86,0.00,,,0.00,Wunderground v.1.15,2013-09-07 03:55:00,
2013-09-06 20:00:00,52.1,47.7,29.69,SE,134,0.0,0.0,85,0.00,,,0.00,Wunderground v.1.15,2013-09-07 04:00:00,
2013-09-06 20:05:00,52.1,47.7,29.69,SE,134,0.0,0.0,85,0.00,,,0.00,Wunderground v.1.15,2013-09-07 04:05:00,
2013-09-06 20:15:00,52.0,47.3,29.69,SE,134,0.0,0.0,84,0.00,,,0.00,Wunderground v.1.15,2013-09-07 04:15:00,
2013-09-06 20:20:00,52.0,47.6,29.69,SE,134,0.0,0.0,85,0.00,,,0.00,Wunderground v.1.15,2013-09-07 04:20:00,
2013-09-06 20:25:00,51.9,47.8,29.69,SE,134,0.0,0.0,86,0.00,,,0.00,Wunderground v.1.15,2013-09-07 04:25:00,
2013-09-06 20:30:00,51.8,48.1,29.69,SE,134,0.0,0.0,87,0.00,,,0.00,Wunderground v.1.15,2013-09-07 04:30:00,
2013-09-06 20:35:00,51.8,48.4,29.69,SE,134,0.0,0.0,88,0.00,,,0.00,Wunderground v.1.15,2013-09-07 04:35:00,
2013-09-06 20:45:00,51.7,48.0,29.69,SE,134,0.0,0.0,87,0.00,,,0.00,Wunderground v.1.15,2013-09-07 04:45:00,
2013-09-06 20:50:00,51.5,48.1,29.69,SE,134,0.0,0.0,88,0.00,,,0.00,Wunderground v.1.15,2013-09-07 04:50:00,
2013-09-06 20:55:00,51.4,48.0,29.69,SE,134,0.0,0.0,88,0.00,,,0.00,Wunderground v.1.15,2013-09-07 04:55:00,
2013-09-06 21:00:00,51.1,47.1,29.69,North,351,0.0,5.0,86,0.00,,,0.00,Wunderground v.1.15,2013-09-07 05:00:00,
2013-09-06 21:05:00,50.9,44.9,29.69,NNW,333,3.0,7.0,80,0.00,,,0.00,Wunderground v.1.15,2013-09-07 05:05:00,
2013-09-06 21:15:00,50.7,44.4,29.69,North,355,4.0,5.0,79,0.00,,,0.00,Wunderground v.1.15,2013-09-07 05:15:00,
2013-09-06 21:20:00,50.3,44.4,29.69,North,355,2.0,2.0,80,0.00,,,0.00,Wunderground v.1.15,2013-09-07 05:20:00,
2013-09-06 21:25:00,49.9,44.0,29.69,NNW,329,1.0,2.0,80,0.00,,,0.00,Wunderground v.1.15,2013-09-07 05:25:00,
2013-09-06 21:30:00,49.6,44.3,29.69,West,262,1.0,1.0,82,0.00,,,0.00,Wunderground v.1.15,2013-09-07 05:30:00,
2013-09-06 21:35:00,49.2,44.3,29.69,SW,232,0.0,1.0,83,0.00,,,0.00,Wunderground v.1.15,2013-09-07 05:35:00,
2013-09-06 21:40:00,48.8,44.2,29.69,SW,224,0.0,0.0,84,0.00,,,0.00,Wunderground v.1.15,2013-09-07 05:40:00,
2013-09-06 21:45:00,48.4,44.1,29.70,SW,224,0.0,0.0,85,0.00,,,0.00,Wunderground v.1.15,2013-09-07 05:45:00,
2013-09-06 21:55:00,47.5,43.5,29.70,SW,215,0.0,0.0,86,0.00,,,0.00,Wunderground v.1.15,2013-09-07 05:55:00,
2013-09-06 22:00:00,47.4,43.4,29.70,ESE,105,0.0,0.0,86,0.00,,,0.00,Wunderground v.1.15,2013-09-07 06:00:00,
2013-09-06 22:05:00,47.3,43.3,29.70,ESE,105,0.0,0.0,86,0.00,,,0.00,Wunderground v.1.15,2013-09-07 06:05:00,
2013-09-06 22:10:00,47.0,43.0,29.69,SSE,150,0.0,0.0,86,0.00,,,0.00,Wunderground v.1.15,2013-09-07 06:10:00,
2013-09-06 22:15:00,46.9,42.9,29.69,ESE,117,1.0,1.0,86,0.00,,,0.00,Wunderground v.1.15,2013-09-07 06:15:00,
2013-09-06 22:20:00,46.9,42.6,29.70,North,5,1.0,1.0,85,0.00,,,0.00,Wunderground v.1.15,2013-09-07 06:20:00,
2013-09-06 22:25:00,47.2,42.6,29.69,NNE,13,2.0,6.0,84,0.00,,,0.00,Wunderground v.1.15,2013-09-07 06:25:00,
2013-09-06 22:30:00,47.4,42.5,29.69,North,355,3.0,6.0,83,0.00,,,0.00,Wunderground v.1.15,2013-09-07 06:30:00,
2013-09-06 22:35:00,47.6,42.4,29.70,North,350,5.0,7.0,82,0.00,,,0.00,Wunderground v.1.15,2013-09-07 06:35:00,
2013-09-06 22:40:00,47.6,42.4,29.70,NNW,341,6.0,6.0,82,0.00,,,0.00,Wunderground v.1.15,2013-09-07 06:40:00,
2013-09-06 22:45:00,47.4,42.2,29.70,WNW,284,5.0,6.0,82,0.00,,,0.00,Wunderground v.1.15,2013-09-07 06:45:00,
2013-09-06 22:50:00,47.2,42.0,29.70,NNW,348,2.0,2.0,82,0.00,,,0.00,Wunderground v.1.15,2013-09-07 06:50:00,
2013-09-06 22:55:00,46.9,41.7,29.70,NW,321,2.0,5.0,82,0.00,,,0.00,Wunderground v.1.15,2013-09-07 06:55:00,
2013-09-06 23:00:00,46.8,41.9,29.70,WSW,247,1.0,1.0,83,0.00,,,0.00,Wunderground v.1.15,2013-09-07 07:00:00,
2013-09-06 23:05:00,46.5,41.9,29.70,NW,317,0.0,1.0,84,0.00,,,0.00,Wunderground v.1.15,2013-09-07 07:05:00,
2013-09-06 23:10:00,46.0,41.7,29.70,NW,313,0.0,0.0,85,0.00,,,0.00,Wunderground v.1.15,2013-09-07 07:10:00,
2013-09-06 23:15:00,45.5,41.6,29.70,West,271,1.0,2.0,86,0.00,,,0.00,Wunderground v.1.15,2013-09-07 07:15:00,
2013-09-06 23:20:00,45.1,41.5,29.70,NW,309,1.0,1.0,87,0.00,,,0.00,Wunderground v.1.15,2013-09-07 07:20:00,
2013-09-06 23:25:00,44.9,41.3,29.70,NW,306,1.0,1.0,87,0.00,,,0.00,Wunderground v.1.15,2013-09-07 07:25:00,
2013-09-06 23:30:00,44.8,41.5,29.70,West,263,1.0,4.0,88,0.00,,,0.00,Wunderground v.1.15,2013-09-07 07:30:00,
2013-09-06 23:40:00,44.4,41.4,29.70,West,272,1.0,2.0,89,0.00,,,0.00,Wunderground v.1.15,2013-09-07 07:40:00,
2013-09-06 23:45:00,44.2,41.2,29.71,West,272,0.0,2.0,89,0.00,,,0.00,Wunderground v.1.15,2013-09-07 07:45:00,
2013-09-06 23:50:00,43.9,40.9,29.71,West,272,0.0,0.0,89,0.00,,,0.00,Wunderground v.1.15,2013-09-07 07:50:00,
2013-09-06 23:55:00,43.4,40.4,29.71,West,272,0.0,0.0,89,0.00,,,0.00,Wunderground v.1.15,2013-09-07 07:55:00,